Saint Médard d'Aunis (17)                   Mai 2012                      
  Température (°C) - Abri Young à ventilation mécanique 43502 Humidité Vent (km/h) Précipitations (mm) Pression (hPa) Divers  
Date Maxi Mini Moy de 1440 relevés Moy (tx+tn)/2 Index chaleur moyen Index chaleur maxi Froid dû au vent moy  Froid dû au vent mini/1min   Amplitude (Tx-Tn) Tx OMM/1min Tn OMM/1min Tm OMM/1min Relative maxi Relative mini Relative moy de 1440 relevés Relative moy (hx+hn)/2 Point de rosée maxi Point de rosée mini Point de rosée moy 1440 relevés Vent moy maxi (10min) Vent  moyen (24h) Direction dominante Rafales (km/h) maxi Direction rafale maxi Rafales moy (24h) Total du jour (mm) Durée en heures et dixièmes Intensité maxi sur 1 min (mm/h) Maxi Mini Moy de 1440 relevés Moy (px+pn)/2 Variation Epaisseur neige (cm) Remarques diverses  
01/05/2012 17,4 3,4 11,06 10,40 10,93 16,8 10,17 2,2 14,0 17,3 3,6 10,45 98% 55% 82,3% 76,5% 12,5 2,9 7,88 29,79 7,92 SE 40,2 W 11,14 4,4 1,0 24,0 1017,9 1013,8 1016,06 1015,85 4,1   Brouillard, ciel entre 3/8 et 8/8, orage et pluie dans l'après-midi  
02/05/2012 22,8 4,2 14,69 13,50 14,34 22,4 14,45 2,7 18,6 22,7 4,3 13,50 96% 39% 70,7% 67,5% 13,0 3,2 8,80 12,90 6,54 ENE 24,1 ENE 9,27 0,0 0,0 0,0 1018,1 1015,0 1016,63 1016,55 3,1   Ciel entre 1/8 et 4/8  
03/05/2012 22,8 8,1 15,48 15,45 15,26 22,7 15,36 7,7 14,7 22,6 8,1 15,35 93% 42% 73,2% 67,5% 14,9 6,8 10,25 17,70 6,08 SW 27,4 SSW 8,45 0,2 0,1 12,0 1015,0 1007,5 1010,62 1011,25 7,5   Ciel entre 3/8 et 6/8  
04/05/2012 19,8 9,2 14,32 14,50 14,34 19,9 13,59 7,7 10,6 19,6 9,2 14,40 96% 61% 83,1% 78,5% 15,1 7,8 11,35 21,54 10,23 WNW 32,2 WSW 13,48 0,4 0,2 12,0 1007,5 1004,4 1005,78 1005,95 3,1   Ciel entre 5/8 et 8/8 le matin, averses, 4/8 l'après-midi, 3/8 le soir  
05/05/2012 15,4 7,7 11,26 11,55 11,39 15,2 10,63 7,3 7,7 15,3 7,7 11,50 97% 71% 91,5% 84,0% 12,3 7,0 9,90 26,70 6,84 W 37,0 W 8,80 5,0 1,4 24,0 1009,5 1005,1 1006,73 1007,30 4,4   Ciel 4/8 à 7/8 le matin, averses, entre 6/8 et 8/8 ensuite, orage, pluie  
06/05/2012 16,2 3,3 10,82 9,75 10,72 15,7 9,45 3,1 12,9 15,9 3,3 9,60 98% 63% 83,3% 80,5% 11,3 2,3 7,93 27,04 11,30 W 38,6 W 14,32 0,4 0,2 12,0 1018,8 1009,1 1013,83 1013,95 9,7   Ciel entre 3/8 et 7/8 le matin, averses, 5/8 l'après-midi  
07/05/2012 20,9 2,8 12,69 11,85 12,57 20,4 12,38 2,2 18,1 20,7 2,9 11,80 97% 52% 79,9% 74,5% 14,0 2,1 9,02 13,86 6,96 SSE 25,7 S 9,45 0,0 0,0 0,0 1018,8 1012,3 1016,43 1015,55 6,5   Ciel 3/8 le  matin, 4/8 à 6/8 l'après-midi, 7/8 à 8/8 le soir, traces de précip.  
08/05/2012 17,6 12,3 14,83 14,95 14,99 17,8 13,36 10,6 5,3 17,5 12,4 14,95 98% 84% 93,1% 91,0% 15,2 10,3 13,70 27,85 15,07 WSW 43,5 WSW 20,42 13,0 4,5 12,0 1014,2 1011,2 1012,69 1012,70 3,0   Ciel 7/8 à 8/8, pluie le matin, plus faible l'après-midi, averses le soir  
09/05/2012 24,3 15,1 18,60 19,70 18,99 24,7 18,22 12,2 9,2 24,2 15,1 19,65 98% 55% 84,4% 76,5% 18,1 13,9 15,74 21,56 10,27 SW 32,2 WSW 13,99 1,0 0,3 12,0 1017,7 1013,9 1016,10 1015,80 3,8   Ciel 8/8 à 6/8 le matin, averses, entre 3/8 et 5/8 l'après-midi  
10/05/2012 27,7 15,6 20,80 21,65 21,29 29,2 20,56 14,8 12,1 27,6 15,6 21,60 91% 49% 76,5% 70,0% 20,8 13,8 16,25 17,06 9,81 SSE 29,0 SSW 13,06 0,0 0,0 0,0 1021,3 1015,0 1018,24 1018,15 6,3   Ciel entre 3/8 et 6/8  
11/05/2012 23,6 12,5 17,76 18,05 18,01 24,3 16,74 9,2 11,1 23,5 12,5 18,00 95% 66% 80,8% 80,5% 18,1 8,8 14,30 25,73 13,48 N 37,0 N 17,89 0,0 0,0 0,0 1030,3 1021,0 1024,67 1025,65 9,3   Ciel entre 3/8 et 6/8  
12/05/2012 20,1 9,6 15,10 14,85 14,57 19,6 12,98 7,5 10,5 19,9 9,6 14,75 78% 44% 63,0% 61,0% 11,6 4,6 7,89 28,33 18,46 NNE 45,1 NE 25,53 0,0 0,0 0,0 1033,0 1029,5 1031,75 1031,25 3,5   Tonnerre en début de nuit, ciel 6/8 à 3/8 le matin, 3/8 à 1/8 l'après-midi  
13/05/2012 19,3 4,6 12,54 11,95 11,95 18,2 11,02 4,2 14,7 19,2 4,7 11,95 91% 41% 64,7% 66,0% 8,8 2,8 5,56 25,58 13,21 NE 38,6 NE 18,37 0,0 0,0 0,0 1032,1 1024,8 1028,33 1028,45 7,3   Ciel 1/8  
14/05/2012 19,2 2,0 11,47 10,60 11,09 18,3 10,57 1,7 17,2 19,1 2,0 10,55 95% 44% 72,2% 69,5% 10,5 0,7 6,21 24,93 9,17 WNW 38,6 WNW 12,38 0,0 0,0 0,0 1025,0 1018,9 1020,98 1021,95 6,1   Ciel entre 1/8 et 6/8 le matin,  6/8 à 3/8 ensuite, voilé  
15/05/2012 15,8 2,7 11,51 9,25 11,10 15,1 9,38 0,9 13,1 15,6 2,7 9,15 93% 39% 70,2% 66,0% 10,5 0,0 5,97 36,53 16,37 WNW 54,7 NW 21,58 0,2 0,1 12,0 1027,0 1019,7 1022,51 1023,35 7,3   Ciel 7/8 à 1/8 le matin, une faible averse, 5/8 l'après-midi, 2/8 le soir  
16/05/2012 18,0 -0,4 10,54 8,80 9,85 16,6 9,92 -1,7 18,4 17,9 -0,3 8,80 94% 39% 62,7% 66,5% 6,7 -1,8 3,06 14,02 7,59 ENE 25,7 NE 10,97 0,0 0,0 0,0 1028,4 1021,0 1026,04 1024,70 7,4   Ciel entre 0/8 et 2/8  
17/05/2012 25,9 7,8 14,91 16,85 14,45 25,3 13,07 4,7 18,1 25,6 7,8 16,70 88% 33% 61,8% 60,5% 13,4 1,4 7,04 30,11 16,13 ESE 41,8 W 22,23 0,0 0,0 0,0 1021,1 1006,3 1011,35 1013,70 14,8   Ciel 6/8 à 3/8 le matin, 3/8 à 5/8 l'après-midi, 6/8 le soir  
18/05/2012 17,6 9,8 14,03 13,70 13,89 17,3 12,36 8,6 7,8 17,4 9,8 13,60 94% 65% 80,2% 79,5% 12,4 8,6 10,59 26,54 14,90 WSW 41,8 WSW 20,33 0,0 0,0 0,0 1012,4 1008,6 1010,62 1010,50 3,8   Ciel entre 5/8 et 8/8 le matin, 6/8 à 7/8 l'après-midi  
19/05/2012 14,5 11,0 12,30 12,75 12,43 14,6 11,70 8,6 3,5 14,4 11,0 12,70 97% 91% 95,0% 94,0% 13,6 10,2 11,52 14,50 7,26 N 22,5 NNE 10,13 15,2 3,8 12,0 1011,6 1007,2 1008,53 1009,40 4,4   Ciel 7/8 à 8/8, pluie  
20/05/2012 12,9 10,4 11,34 11,65 11,49 12,9 9,64 7,6 2,5 12,8 10,5 11,65 97% 88% 93,9% 92,5% 11,9 9,5 10,39 18,82 12,94 NW 29,0 NW 17,40 4,0 1,7 12,0 1008,3 1005,6 1006,62 1006,95 2,7   Ciel 8/8, pluie l'après-midi  
21/05/2012 14,9 10,7 12,50 12,80 12,60 14,9 10,91 9,1 4,2 14,9 10,7 12,80 97% 86% 92,4% 91,5% 13,2 10,1 11,29 22,18 13,39 NW 37,0 NNW 18,16 0,2 0,1 12,0 1015,9 1004,9 1009,47 1010,40 11,0   Ciel 8/8, pluie faible en soirée  
22/05/2012 18,8 10,3 14,29 14,55 14,35 18,9 11,77 7,6 8,5 18,7 10,4 14,55 94% 74% 84,9% 84,0% 14,9 9,0 11,73 34,93 20,67 WNW 49,9 WNW 27,37 0,2 0,1 12,0 1024,1 1015,7 1019,62 1019,90 8,4   Ciel 8/8 à 2/8 le matin, 2/8 à 4/8 l'après-midi  
23/05/2012 21,2 9,1 15,32 15,15 15,52 21,4 14,60 8,3 12,1 20,9 9,1 15,00 97% 65% 85,3% 81,0% 16,8 8,5 12,73 23,47 10,65 WNW 33,8 WNW 13,91 0,2 0,1 12,0 1026,4 1023,9 1025,41 1025,15 2,5   Ciel 0/8 à 2/8  
24/05/2012 27,3 13,1 20,41 20,20 21,00 28,4 20,22 12,3 14,2 27,3 13,1 20,20 96% 57% 79,7% 76,5% 20,0 12,3 16,48 16,26 9,17 NE 27,4 NNE 12,59 0,2 0,1 12,0 1025,9 1019,1 1022,89 1022,50 6,8   Ciel 0/8 à 2/8  
25/05/2012 29,6 17,4 23,44 23,50 24,26 31,2 23,33 17,4 12,2 29,6 17,4 23,50 96% 46% 72,5% 71,0% 21,0 16,1 17,73 18,34 9,71 ENE 32,2 NE 14,04 0,2 0,1 12,0 1019,1 1011,6 1014,55 1015,35 7,5   Brume, ciel entre 0/8 et 1/8  
26/05/2012 20,7 8,5 16,64 14,60 16,90 21,3 15,40 8,4 12,2 20,6 8,6 14,60 95% 65% 83,6% 80,0% 17,4 7,6 13,77 29,31 14,22 WNW 46,7 WNW 18,74 0,0 0,0 0,0 1021,1 1011,7 1016,60 1016,40 9,4   Brume, nuages bas en matinée, ciel 4/8 à 8/8 puis 7/8 à 3/8 l'après-midi  
27/05/2012 22,7 7,5 15,68 15,10 15,67 22,8 15,37 7,6 15,2 22,6 7,6 15,10 98% 50% 78,9% 74,0% 16,3 6,9 11,71 17,54 8,19 WNW 27,4 NW 11,03 0,0 0,0 0,0 1021,5 1019,2 1020,39 1020,35 2,3   Ciel entre 2/8 et 5/8 le matin, entre 1/8 et 4/8 l'après-midi  
28/05/2012 25,9 10,2 18,33 18,05 18,14 25,2 18,08 9,3 15,7 25,6 10,2 17,90 90% 39% 65,3% 64,5% 13,6 7,7 10,99 15,30 8,63 N 25,7 N 11,58 0,0 0,0 0,0 1021,1 1018,5 1019,86 1019,80 2,6   Ciel 6/8 à 2/8  
29/05/2012 27,8 12,5 19,99 20,15 20,07 27,7 19,88 12,3 15,3 27,6 12,6 20,10 91% 42% 69,8% 66,5% 17,6 10,5 13,75 15,46 6,92 NNE 27,4 NE 9,83 0,0 0,0 0,0 1018,9 1016,0 1017,58 1017,45 2,9   Ciel 0/8 à 4/8  
30/05/2012 24,6 10,9 17,62 17,75 17,99 25,3 17,20 10,6 13,7 24,6 11,0 17,80 96% 63% 82,8% 79,5% 18,9 9,9 14,50 21,38 8,65 WNW 29,0 WNW 11,32 0,0 0,0 0,0 1023,9 1017,9 1020,84 1020,90 6,0   Ciel 2/8 à 5/8 le matin, traces de précipitations, 6/8 à 5/8 ensuite, 2/8 le soir  
31/05/2012 24,8 11,1 17,65 17,95 17,82 25,0 17,49 10,3 13,7 24,6 11,1 17,85 98% 52% 78,6% 75,0% 17,7 10,5 13,53 15,62 6,74 NW 27,4 W 9,29 0,4 0,2 12,0 1024,6 1021,9 1023,19 1023,25 2,7   Ciel 2/8 à 3/8  
  Température (°C) - Abri Young à ventilation mécanique 43502 Humidité Vent (km/h) Précipitations (mm) Pression (hPa) Divers  
  Maxi Mini Moy de 1440 relevés Moy (tx+tn)/2 Index chaleur moyen Index chaleur maxi Froid dû au vent moy  Froid dû au vent mini/1min   Amplitude (Tx-Tn) Tx OMM/1min Tn OMM/1min Tm OMM/1min Relative maxi Relative mini Relative moy de 1440 relevés Relative moy (hx+hn)/2 Point de rosée maxi Point de rosée mini Point de rosée moy 1440 relevés Vent moy maxi (10min) Vent  moyen (24h) Direction dominante Rafales (km/h) maxi Direction rafale maxi Rafales moy (24h) Total du jour (mm) Durée en heures et dixièmes Intensité maxi sur 1 min (mm/h) Maxi Mini Moy de 1440 relevés Moy (px+pn)/2 Variation Epaisseur neige (cm) Remarques diverses  
Maxi 29,6 17,4 23,44 23,50 24,26 31,2 23,33 17,4 18,6 29,6 17,4 23,50 98% 91% 95,0% 94,0% 21,0 16,1 17,73 36,53 20,67 WNW 54,7 NW 27,37 15,2 4,5 24,0 1033,0 1029,5 1031,75 1031,25 14,8 0,0    
Mini 12,9 -0,4 10,54 8,80 9,85 12,9 9,38 -1,7 2,5 12,8 -0,3 8,80 78% 33% 61,8% 60,5% 6,7 -1,8 3,06 12,90 6,08   22,5   8,45       1007,5 1004,4 1005,78 1005,95 2,3      
Moy 20,97 8,81 15,09 14,89 15,10 20,94 14,19 7,58 12,16 20,83 8,85 14,84 94,6% 56,8% 78,6% 75,7% 14,58 7,23 11,02 22,29 10,89   34,47   14,74       1020,34 1014,53 1017,25 1017,43 5,81      
Total                                                   45,2 13,8             0,0    
 
  Observations      
Jours Rafales >= 36,0 km/h Rafales >= 57,6 km/h Rafales >= 75,6 km/h Rafales >= 100,8 km/h Précipi. >= 0,1 mm Précipi. >= 1,0 mm Précipi. >= 5,0 mm Précipi. >= 10,0 mm Tx <= 0 Tx >= 25 Tx >= 30 Tx >= 35 Tx >= 40 Tn <= 0 Tn <= -5 Tn <= -10 Tn <= -15 T moy <= 0 T moy <=     -5 T moy >= 20 T moy >= 25 T moy >= 30 Grêle Grésil Brouillard Brume Orage Neige        
01/05/2012 1 0 0 0 1 1 0 0 0 0 0 0 0 0 0 0 0 0 0 0 0 0 0 0 1 0 1 0    
02/05/2012 0 0 0 0 0 0 0 0 0 0 0 0 0 0 0 0 0 0 0 0 0 0 0 0 0 0 0 0    
03/05/2012 0 0 0 0 1 0 0 0 0 0 0 0 0 0 0 0 0 0 0 0 0 0 0 0 0 0 0 0    
04/05/2012 0 0 0 0 1 0 0 0 0 0 0 0 0 0 0 0 0 0 0 0 0 0 0 0 0 0 0 0    
05/05/2012 1 0 0 0 1 1 1 0 0 0 0 0 0 0 0 0 0 0 0 0 0 0 0 0 0 0 1 0    
06/05/2012 1 0 0 0 1 0 0 0 0 0 0 0 0 0 0 0 0 0 0 0 0 0 0 0 0 0 0 0    
07/05/2012 0 0 0 0 0 0 0 0 0 0 0 0 0 0 0 0 0 0 0 0 0 0 0 0 0 0 0 0    
08/05/2012 1 0 0 0 1 1 1 1 0 0 0 0 0 0 0 0 0 0 0 0 0 0 0 0 0 0 0 0    
09/05/2012 0 0 0 0 1 1 0 0 0 0 0 0 0 0 0 0 0 0 0 0 0 0 0 0 0 0 0 0    
10/05/2012 0 0 0 0 0 0 0 0 0 1 0 0 0 0 0 0 0 0 0 1 0 0 0 0 0 0 0 0    
11/05/2012 1 0 0 0 0 0 0 0 0 0 0 0 0 0 0 0 0 0 0 0 0 0 0 0 0 0 0 0    
12/05/2012 1 0 0 0 0 0 0 0 0 0 0 0 0 0 0 0 0 0 0 0 0 0 0 0 0 0 1 0    
13/05/2012 1 0 0 0 0 0 0 0 0 0 0 0 0 0 0 0 0 0 0 0 0 0 0 0 0 0 0 0    
14/05/2012 1 0 0 0 0 0 0 0 0 0 0 0 0 0 0 0 0 0 0 0 0 0 0 0 0 0 0 0    
15/05/2012 1 0 0 0 1 0 0 0 0 0 0 0 0 0 0 0 0 0 0 0 0 0 0 0 0 0 0 0    
16/05/2012 0 0 0 0 0 0 0 0 0 0 0 0 0 1 0 0 0 0 0 0 0 0 0 0 0 0 0 0    
17/05/2012 1 0 0 0 0 0 0 0 0 1 0 0 0 0 0 0 0 0 0 0 0 0 0 0 0 0 0 0    
18/05/2012 1 0 0 0 0 0 0 0 0 0 0 0 0 0 0 0 0 0 0 0 0 0 0 0 0 0 0 0    
19/05/2012 0 0 0 0 1 1 1 1 0 0 0 0 0 0 0 0 0 0 0 0 0 0 0 0 0 0 0 0    
20/05/2012 0 0 0 0 1 1 0 0 0 0 0 0 0 0 0 0 0 0 0 0 0 0 0 0 0 0 0 0    
21/05/2012 1 0 0 0 1 0 0 0 0 0 0 0 0 0 0 0 0 0 0 0 0 0 0 0 0 0 0 0    
22/05/2012 1 0 0 0 1 0 0 0 0 0 0 0 0 0 0 0 0 0 0 0 0 0 0 0 0 0 0 0    
23/05/2012 0 0 0 0 1 0 0 0 0 0 0 0 0 0 0 0 0 0 0 0 0 0 0 0 0 0 0 0    
24/05/2012 0 0 0 0 1 0 0 0 0 1 0 0 0 0 0 0 0 0 0 1 0 0 0 0 0 0 0 0    
25/05/2012 0 0 0 0 1 0 0 0 0 1 0 0 0 0 0 0 0 0 0 1 0 0 0 0 0 1 0 0    
26/05/2012 1 0 0 0 0 0 0 0 0 0 0 0 0 0 0 0 0 0 0 0 0 0 0 0 0 1 0 0    
27/05/2012 0 0 0 0 0 0 0 0 0 0 0 0 0 0 0 0 0 0 0 0 0 0 0 0 0 0 0 0    
28/05/2012 0 0 0 0 0 0 0 0 0 1 0 0 0 0 0 0 0 0 0 0 0 0 0 0 0 0 0 0    
29/05/2012 0 0 0 0 0 0 0 0 0 1 0 0 0 0 0 0 0 0 0 0 0 0 0 0 0 0 0 0    
30/05/2012 0 0 0 0 0 0 0 0 0 0 0 0 0 0 0 0 0 0 0 0 0 0 0 0 0 0 0 0    
31/05/2012 0 0 0 0 1 0 0 0 0 0 0 0 0 0 0 0 0 0 0 0 0 0 0 0 0 0 0 0    
   
  Rafales >= 36,0 km/h Rafales >= 57,6 km/h Rafales >= 75,6 km/h Rafales >= 100,8 km/h Précipi. >= 0,1 mm Précipi. >= 1,0 mm Précipi. >= 5,0 mm Précipi. >= 10,0 mm Tx <=0 Tx >= 25 Tx >= 30 Tx >= 35 Tx >= 40 Tn <= 0 Tn <= -5 Tn <= -10 Tn <= -15 T moy <= 0 T moy <=  -5 T moy >= 20 T moy >= 25 T moy >= 30 Grêle Grésil Brouillard Brume Orage Neige        
Total 14 0 0 0 16 6 3 2 0 6 0 0 0 1 0 0 0 0 0 3 0 0 0 0 1 2 3 0